sensor_id;sensor_type;location;lat;lon;timestamp;P1;durP1;ratioP1;P2;durP2;ratioP2
37091;SDS011;23005;51.998;4.502;2022-10-16T00:00:04;3.85;;;1.73;;
37091;SDS011;23005;51.998;4.502;2022-10-16T00:01:55;4.72;;;1.70;;
37091;SDS011;23005;51.998;4.502;2022-10-16T00:03:46;6.63;;;1.67;;
37091;SDS011;23005;51.998;4.502;2022-10-16T00:05:40;6.75;;;1.80;;
37091;SDS011;23005;51.998;4.502;2022-10-16T00:07:31;5.10;;;1.67;;
37091;SDS011;23005;51.998;4.502;2022-10-16T00:09:22;7.00;;;1.52;;
37091;SDS011;23005;51.998;4.502;2022-10-16T00:11:13;4.93;;;1.70;;
37091;SDS011;23005;51.998;4.502;2022-10-16T00:13:04;3.90;;;2.10;;
37091;SDS011;23005;51.998;4.502;2022-10-16T00:14:56;5.55;;;1.98;;
37091;SDS011;23005;51.998;4.502;2022-10-16T00:16:47;5.95;;;1.70;;
37091;SDS011;23005;51.998;4.502;2022-10-16T00:18:37;8.45;;;1.77;;
37091;SDS011;23005;51.998;4.502;2022-10-16T00:20:28;8.48;;;2.00;;
37091;SDS011;23005;51.998;4.502;2022-10-16T00:22:18;8.70;;;1.60;;
37091;SDS011;23005;51.998;4.502;2022-10-16T00:24:09;4.65;;;2.00;;
37091;SDS011;23005;51.998;4.502;2022-10-16T00:26:01;4.40;;;1.75;;
37091;SDS011;23005;51.998;4.502;2022-10-16T00:27:53;6.97;;;1.63;;
37091;SDS011;23005;51.998;4.502;2022-10-16T00:29:44;6.68;;;1.50;;
37091;SDS011;23005;51.998;4.502;2022-10-16T00:31:36;3.88;;;1.55;;
37091;SDS011;23005;51.998;4.502;2022-10-16T00:33:27;2.92;;;1.10;;
37091;SDS011;23005;51.998;4.502;2022-10-16T00:35:18;6.13;;;1.30;;
37091;SDS011;23005;51.998;4.502;2022-10-16T00:37:08;2.08;;;1.20;;
37091;SDS011;23005;51.998;4.502;2022-10-16T00:38:59;4.20;;;1.30;;
37091;SDS011;23005;51.998;4.502;2022-10-16T00:40:54;5.68;;;1.10;;
37091;SDS011;23005;51.998;4.502;2022-10-16T00:42:45;5.30;;;1.13;;
37091;SDS011;23005;51.998;4.502;2022-10-16T00:44:43;6.88;;;1.25;;
37091;SDS011;23005;51.998;4.502;2022-10-16T00:46:38;4.22;;;1.00;;
37091;SDS011;23005;51.998;4.502;2022-10-16T00:48:30;3.88;;;1.10;;
37091;SDS011;23005;51.998;4.502;2022-10-16T00:50:22;9.48;;;1.40;;
37091;SDS011;23005;51.998;4.502;2022-10-16T00:52:16;7.63;;;1.23;;
37091;SDS011;23005;51.998;4.502;2022-10-16T00:54:09;4.38;;;1.00;;
37091;SDS011;23005;51.998;4.502;2022-10-16T00:56:01;5.03;;;1.67;;
37091;SDS011;23005;51.998;4.502;2022-10-16T00:57:52;5.07;;;1.65;;
37091;SDS011;23005;51.998;4.502;2022-10-16T00:59:43;5.95;;;1.80;;
37091;SDS011;23005;51.998;4.502;2022-10-16T01:01:33;2.53;;;1.50;;
37091;SDS011;23005;51.998;4.502;2022-10-16T01:03:27;4.20;;;1.70;;
37091;SDS011;23005;51.998;4.502;2022-10-16T01:05:19;4.90;;;1.70;;
37091;SDS011;23005;51.998;4.502;2022-10-16T01:07:12;6.57;;;1.60;;
37091;SDS011;23005;51.998;4.502;2022-10-16T01:09:08;7.82;;;2.03;;
37091;SDS011;23005;51.998;4.502;2022-10-16T01:11:03;7.35;;;1.83;;
37091;SDS011;23005;51.998;4.502;2022-10-16T01:13:01;5.57;;;2.05;;
37091;SDS011;23005;51.998;4.502;2022-10-16T01:14:55;4.05;;;1.85;;
37091;SDS011;23005;51.998;4.502;2022-10-16T01:16:49;3.92;;;1.98;;
37091;SDS011;23005;51.998;4.502;2022-10-16T01:18:45;6.20;;;2.00;;
37091;SDS011;23005;51.998;4.502;2022-10-16T01:20:38;5.93;;;1.75;;
37091;SDS011;23005;51.998;4.502;2022-10-16T01:22:37;5.57;;;2.10;;
37091;SDS011;23005;51.998;4.502;2022-10-16T01:24:31;4.88;;;1.88;;
37091;SDS011;23005;51.998;4.502;2022-10-16T01:26:31;7.88;;;1.92;;
37091;SDS011;23005;51.998;4.502;2022-10-16T01:28:30;5.30;;;1.92;;
37091;SDS011;23005;51.998;4.502;2022-10-16T01:30:25;6.03;;;2.10;;
37091;SDS011;23005;51.998;4.502;2022-10-16T01:32:18;4.95;;;2.00;;
37091;SDS011;23005;51.998;4.502;2022-10-16T01:34:13;4.25;;;1.83;;
37091;SDS011;23005;51.998;4.502;2022-10-16T01:36:06;9.65;;;2.50;;
37091;SDS011;23005;51.998;4.502;2022-10-16T01:38:01;7.28;;;1.80;;
37091;SDS011;23005;51.998;4.502;2022-10-16T01:39:54;3.83;;;1.65;;
37091;SDS011;23005;51.998;4.502;2022-10-16T01:43:40;6.45;;;1.77;;
37091;SDS011;23005;51.998;4.502;2022-10-16T01:45:32;3.38;;;1.63;;
37091;SDS011;23005;51.998;4.502;2022-10-16T01:47:23;9.18;;;1.83;;
37091;SDS011;23005;51.998;4.502;2022-10-16T01:49:16;10.00;;;2.00;;
37091;SDS011;23005;51.998;4.502;2022-10-16T01:51:08;4.68;;;1.45;;
37091;SDS011;23005;51.998;4.502;2022-10-16T01:54:51;4.32;;;1.90;;
37091;SDS011;23005;51.998;4.502;2022-10-16T01:56:42;4.95;;;1.98;;
37091;SDS011;23005;51.998;4.502;2022-10-16T01:58:34;4.28;;;2.20;;
37091;SDS011;23005;51.998;4.502;2022-10-16T02:00:28;6.85;;;2.13;;
37091;SDS011;23005;51.998;4.502;2022-10-16T02:02:19;5.68;;;2.10;;
37091;SDS011;23005;51.998;4.502;2022-10-16T02:06:03;3.78;;;2.10;;
37091;SDS011;23005;51.998;4.502;2022-10-16T02:07:53;10.93;;;2.53;;
37091;SDS011;23005;51.998;4.502;2022-10-16T02:09:45;6.85;;;2.28;;
37091;SDS011;23005;51.998;4.502;2022-10-16T02:11:35;6.05;;;2.55;;
37091;SDS011;23005;51.998;4.502;2022-10-16T02:13:26;3.92;;;2.10;;
37091;SDS011;23005;51.998;4.502;2022-10-16T02:15:19;7.70;;;2.17;;
37091;SDS011;23005;51.998;4.502;2022-10-16T02:17:12;6.75;;;2.42;;
37091;SDS011;23005;51.998;4.502;2022-10-16T02:19:05;13.63;;;2.38;;
37091;SDS011;23005;51.998;4.502;2022-10-16T02:20:57;5.38;;;2.50;;
37091;SDS011;23005;51.998;4.502;2022-10-16T02:22:49;5.15;;;2.10;;
37091;SDS011;23005;51.998;4.502;2022-10-16T02:24:43;9.15;;;2.33;;
37091;SDS011;23005;51.998;4.502;2022-10-16T02:26:40;4.20;;;1.90;;
37091;SDS011;23005;51.998;4.502;2022-10-16T02:28:34;5.20;;;2.45;;
37091;SDS011;23005;51.998;4.502;2022-10-16T02:30:28;5.18;;;2.33;;
37091;SDS011;23005;51.998;4.502;2022-10-16T02:32:23;8.43;;;2.10;;
37091;SDS011;23005;51.998;4.502;2022-10-16T02:34:15;3.95;;;2.00;;
37091;SDS011;23005;51.998;4.502;2022-10-16T02:36:07;10.75;;;2.55;;
37091;SDS011;23005;51.998;4.502;2022-10-16T02:37:58;5.38;;;1.98;;
37091;SDS011;23005;51.998;4.502;2022-10-16T02:39:49;6.78;;;2.60;;
37091;SDS011;23005;51.998;4.502;2022-10-16T02:41:39;5.82;;;2.25;;
37091;SDS011;23005;51.998;4.502;2022-10-16T02:43:29;5.00;;;2.00;;
37091;SDS011;23005;51.998;4.502;2022-10-16T02:45:20;9.75;;;2.80;;
37091;SDS011;23005;51.998;4.502;2022-10-16T02:47:11;10.63;;;2.63;;
37091;SDS011;23005;51.998;4.502;2022-10-16T02:49:08;5.40;;;2.17;;
37091;SDS011;23005;51.998;4.502;2022-10-16T02:50:58;6.68;;;2.20;;
37091;SDS011;23005;51.998;4.502;2022-10-16T02:52:49;8.93;;;2.25;;
37091;SDS011;23005;51.998;4.502;2022-10-16T02:54:39;4.88;;;1.80;;
37091;SDS011;23005;51.998;4.502;2022-10-16T02:56:30;8.55;;;1.98;;
37091;SDS011;23005;51.998;4.502;2022-10-16T02:58:20;9.80;;;2.75;;
37091;SDS011;23005;51.998;4.502;2022-10-16T03:00:12;9.98;;;2.35;;
37091;SDS011;23005;51.998;4.502;2022-10-16T03:03:53;8.13;;;2.30;;
37091;SDS011;23005;51.998;4.502;2022-10-16T03:05:45;7.95;;;2.20;;
37091;SDS011;23005;51.998;4.502;2022-10-16T03:07:36;7.80;;;2.38;;
37091;SDS011;23005;51.998;4.502;2022-10-16T03:09:27;11.57;;;2.25;;
37091;SDS011;23005;51.998;4.502;2022-10-16T03:11:17;5.43;;;2.03;;
37091;SDS011;23005;51.998;4.502;2022-10-16T03:13:08;7.68;;;2.10;;
37091;SDS011;23005;51.998;4.502;2022-10-16T03:14:58;9.77;;;2.35;;
37091;SDS011;23005;51.998;4.502;2022-10-16T03:16:48;6.53;;;2.33;;
37091;SDS011;23005;51.998;4.502;2022-10-16T03:18:39;10.30;;;2.60;;
37091;SDS011;23005;51.998;4.502;2022-10-16T03:20:30;5.65;;;2.10;;
37091;SDS011;23005;51.998;4.502;2022-10-16T03:22:22;7.32;;;2.20;;
37091;SDS011;23005;51.998;4.502;2022-10-16T03:24:13;5.55;;;2.40;;
37091;SDS011;23005;51.998;4.502;2022-10-16T03:26:03;6.18;;;2.35;;
37091;SDS011;23005;51.998;4.502;2022-10-16T03:27:54;8.07;;;2.72;;
37091;SDS011;23005;51.998;4.502;2022-10-16T03:29:44;7.65;;;2.28;;
37091;SDS011;23005;51.998;4.502;2022-10-16T03:31:35;5.40;;;2.10;;
37091;SDS011;23005;51.998;4.502;2022-10-16T03:33:25;11.52;;;2.78;;
37091;SDS011;23005;51.998;4.502;2022-10-16T03:35:16;8.38;;;2.38;;
37091;SDS011;23005;51.998;4.502;2022-10-16T03:37:06;6.57;;;2.38;;
37091;SDS011;23005;51.998;4.502;2022-10-16T03:38:58;8.18;;;2.55;;
37091;SDS011;23005;51.998;4.502;2022-10-16T03:40:48;6.10;;;2.70;;
37091;SDS011;23005;51.998;4.502;2022-10-16T03:42:39;7.32;;;2.42;;
37091;SDS011;23005;51.998;4.502;2022-10-16T03:44:29;6.38;;;2.10;;
37091;SDS011;23005;51.998;4.502;2022-10-16T03:46:20;7.45;;;2.38;;
37091;SDS011;23005;51.998;4.502;2022-10-16T03:48:10;8.68;;;2.60;;
37091;SDS011;23005;51.998;4.502;2022-10-16T03:50:01;8.18;;;2.33;;
37091;SDS011;23005;51.998;4.502;2022-10-16T03:51:51;8.32;;;2.88;;
37091;SDS011;23005;51.998;4.502;2022-10-16T03:53:42;8.57;;;2.50;;
37091;SDS011;23005;51.998;4.502;2022-10-16T03:55:34;16.30;;;2.50;;
37091;SDS011;23005;51.998;4.502;2022-10-16T03:57:24;5.53;;;2.15;;
37091;SDS011;23005;51.998;4.502;2022-10-16T03:59:15;7.22;;;2.00;;
37091;SDS011;23005;51.998;4.502;2022-10-16T04:01:06;8.32;;;1.98;;
37091;SDS011;23005;51.998;4.502;2022-10-16T04:02:57;7.00;;;2.05;;
37091;SDS011;23005;51.998;4.502;2022-10-16T04:04:47;5.22;;;2.42;;
37091;SDS011;23005;51.998;4.502;2022-10-16T04:06:37;9.38;;;2.35;;
37091;SDS011;23005;51.998;4.502;2022-10-16T04:08:28;10.18;;;2.35;;
37091;SDS011;23005;51.998;4.502;2022-10-16T04:10:18;7.30;;;2.58;;
37091;SDS011;23005;51.998;4.502;2022-10-16T04:12:10;4.18;;;2.05;;
37091;SDS011;23005;51.998;4.502;2022-10-16T04:14:01;6.22;;;2.00;;
37091;SDS011;23005;51.998;4.502;2022-10-16T04:15:52;10.55;;;2.53;;
37091;SDS011;23005;51.998;4.502;2022-10-16T04:17:42;7.43;;;2.10;;
37091;SDS011;23005;51.998;4.502;2022-10-16T04:19:32;4.28;;;2.30;;
37091;SDS011;23005;51.998;4.502;2022-10-16T04:21:23;8.73;;;2.40;;
37091;SDS011;23005;51.998;4.502;2022-10-16T04:23:13;8.70;;;2.47;;
37091;SDS011;23005;51.998;4.502;2022-10-16T04:25:04;5.72;;;2.40;;
37091;SDS011;23005;51.998;4.502;2022-10-16T04:26:54;9.00;;;2.55;;
37091;SDS011;23005;51.998;4.502;2022-10-16T04:28:46;9.40;;;2.85;;
37091;SDS011;23005;51.998;4.502;2022-10-16T04:30:38;11.43;;;3.15;;
37091;SDS011;23005;51.998;4.502;2022-10-16T04:32:29;7.78;;;2.20;;
37091;SDS011;23005;51.998;4.502;2022-10-16T04:34:20;5.68;;;2.35;;
37091;SDS011;23005;51.998;4.502;2022-10-16T04:36:11;4.20;;;2.20;;
37091;SDS011;23005;51.998;4.502;2022-10-16T04:38:01;7.15;;;2.35;;
37091;SDS011;23005;51.998;4.502;2022-10-16T04:39:52;9.73;;;2.80;;
37091;SDS011;23005;51.998;4.502;2022-10-16T04:41:42;9.40;;;2.53;;
37091;SDS011;23005;51.998;4.502;2022-10-16T04:43:33;6.07;;;2.40;;
37091;SDS011;23005;51.998;4.502;2022-10-16T04:45:25;6.05;;;2.47;;
37091;SDS011;23005;51.998;4.502;2022-10-16T04:47:16;7.82;;;2.20;;
37091;SDS011;23005;51.998;4.502;2022-10-16T04:49:06;7.03;;;2.20;;
37091;SDS011;23005;51.998;4.502;2022-10-16T04:50:56;8.05;;;2.30;;
37091;SDS011;23005;51.998;4.502;2022-10-16T04:52:47;7.63;;;2.30;;
37091;SDS011;23005;51.998;4.502;2022-10-16T04:54:37;7.68;;;2.40;;
37091;SDS011;23005;51.998;4.502;2022-10-16T04:56:28;7.40;;;2.40;;
37091;SDS011;23005;51.998;4.502;2022-10-16T04:58:18;6.82;;;2.65;;
37091;SDS011;23005;51.998;4.502;2022-10-16T05:00:09;16.88;;;2.70;;
37091;SDS011;23005;51.998;4.502;2022-10-16T05:02:01;11.20;;;3.17;;
37091;SDS011;23005;51.998;4.502;2022-10-16T05:03:51;6.38;;;2.20;;
37091;SDS011;23005;51.998;4.502;2022-10-16T05:05:42;6.65;;;2.20;;
37091;SDS011;23005;51.998;4.502;2022-10-16T05:07:33;6.57;;;2.42;;
37091;SDS011;23005;51.998;4.502;2022-10-16T05:09:24;6.85;;;2.10;;
37091;SDS011;23005;51.998;4.502;2022-10-16T05:11:14;9.75;;;2.28;;
37091;SDS011;23005;51.998;4.502;2022-10-16T05:13:05;10.27;;;2.40;;
37091;SDS011;23005;51.998;4.502;2022-10-16T05:14:55;14.10;;;2.63;;
37091;SDS011;23005;51.998;4.502;2022-10-16T05:16:46;7.15;;;2.47;;
37091;SDS011;23005;51.998;4.502;2022-10-16T05:18:38;10.35;;;2.35;;
37091;SDS011;23005;51.998;4.502;2022-10-16T05:20:28;10.43;;;2.35;;
37091;SDS011;23005;51.998;4.502;2022-10-16T05:22:19;8.23;;;2.10;;
37091;SDS011;23005;51.998;4.502;2022-10-16T05:24:09;11.60;;;2.42;;
37091;SDS011;23005;51.998;4.502;2022-10-16T05:25:59;7.10;;;2.33;;
37091;SDS011;23005;51.998;4.502;2022-10-16T05:27:50;17.67;;;3.25;;
37091;SDS011;23005;51.998;4.502;2022-10-16T05:29:40;12.23;;;2.58;;
37091;SDS011;23005;51.998;4.502;2022-10-16T05:31:30;11.73;;;2.42;;
37091;SDS011;23005;51.998;4.502;2022-10-16T05:33:21;8.57;;;2.38;;
37091;SDS011;23005;51.998;4.502;2022-10-16T05:35:14;7.50;;;2.78;;
37091;SDS011;23005;51.998;4.502;2022-10-16T05:37:04;5.88;;;2.33;;
37091;SDS011;23005;51.998;4.502;2022-10-16T05:38:55;11.15;;;2.70;;
37091;SDS011;23005;51.998;4.502;2022-10-16T05:40:50;10.60;;;2.95;;
37091;SDS011;23005;51.998;4.502;2022-10-16T05:42:41;7.82;;;2.50;;
37091;SDS011;23005;51.998;4.502;2022-10-16T05:44:32;11.23;;;2.90;;
37091;SDS011;23005;51.998;4.502;2022-10-16T05:46:27;11.07;;;2.63;;
37091;SDS011;23005;51.998;4.502;2022-10-16T05:48:18;11.80;;;2.35;;
37091;SDS011;23005;51.998;4.502;2022-10-16T05:50:08;9.30;;;2.78;;
37091;SDS011;23005;51.998;4.502;2022-10-16T05:52:00;10.80;;;2.45;;
37091;SDS011;23005;51.998;4.502;2022-10-16T05:53:51;13.25;;;3.22;;
37091;SDS011;23005;51.998;4.502;2022-10-16T05:55:42;7.43;;;2.40;;
37091;SDS011;23005;51.998;4.502;2022-10-16T05:57:32;11.48;;;2.60;;
37091;SDS011;23005;51.998;4.502;2022-10-16T05:59:23;13.07;;;2.63;;
37091;SDS011;23005;51.998;4.502;2022-10-16T06:01:14;10.63;;;2.85;;
37091;SDS011;23005;51.998;4.502;2022-10-16T06:03:05;9.43;;;2.28;;
37091;SDS011;23005;51.998;4.502;2022-10-16T06:04:56;13.23;;;2.35;;
37091;SDS011;23005;51.998;4.502;2022-10-16T06:06:46;11.07;;;2.30;;
37091;SDS011;23005;51.998;4.502;2022-10-16T06:08:38;10.80;;;2.30;;
37091;SDS011;23005;51.998;4.502;2022-10-16T06:10:28;8.43;;;2.42;;
37091;SDS011;23005;51.998;4.502;2022-10-16T06:12:19;19.20;;;2.95;;
37091;SDS011;23005;51.998;4.502;2022-10-16T06:14:09;9.45;;;2.40;;
37091;SDS011;23005;51.998;4.502;2022-10-16T06:16:00;12.48;;;2.85;;
37091;SDS011;23005;51.998;4.502;2022-10-16T06:17:51;12.00;;;3.30;;
37091;SDS011;23005;51.998;4.502;2022-10-16T06:19:41;6.03;;;1.90;;
37091;SDS011;23005;51.998;4.502;2022-10-16T06:21:31;12.93;;;2.50;;
37091;SDS011;23005;51.998;4.502;2022-10-16T06:23:22;8.95;;;2.42;;
37091;SDS011;23005;51.998;4.502;2022-10-16T06:25:14;11.43;;;2.42;;
37091;SDS011;23005;51.998;4.502;2022-10-16T06:27:05;8.82;;;1.90;;
37091;SDS011;23005;51.998;4.502;2022-10-16T06:28:56;10.05;;;2.30;;
37091;SDS011;23005;51.998;4.502;2022-10-16T06:30:47;10.43;;;2.30;;
37091;SDS011;23005;51.998;4.502;2022-10-16T06:32:37;16.92;;;2.78;;
37091;SDS011;23005;51.998;4.502;2022-10-16T06:34:28;14.52;;;2.30;;
37091;SDS011;23005;51.998;4.502;2022-10-16T06:36:18;16.25;;;2.60;;
37091;SDS011;23005;51.998;4.502;2022-10-16T06:38:09;13.85;;;2.30;;
37091;SDS011;23005;51.998;4.502;2022-10-16T06:39:59;10.52;;;1.88;;
37091;SDS011;23005;51.998;4.502;2022-10-16T06:41:51;9.32;;;2.15;;
37091;SDS011;23005;51.998;4.502;2022-10-16T06:43:41;11.25;;;2.13;;
37091;SDS011;23005;51.998;4.502;2022-10-16T06:45:32;6.28;;;2.30;;
37091;SDS011;23005;51.998;4.502;2022-10-16T06:47:22;13.15;;;2.90;;
37091;SDS011;23005;51.998;4.502;2022-10-16T06:49:13;12.32;;;2.40;;
37091;SDS011;23005;51.998;4.502;2022-10-16T06:51:04;13.77;;;2.40;;
37091;SDS011;23005;51.998;4.502;2022-10-16T06:52:56;10.05;;;2.80;;
37091;SDS011;23005;51.998;4.502;2022-10-16T06:54:46;9.27;;;2.40;;
37091;SDS011;23005;51.998;4.502;2022-10-16T06:56:37;16.90;;;2.17;;
37091;SDS011;23005;51.998;4.502;2022-10-16T06:58:28;12.35;;;1.88;;
37091;SDS011;23005;51.998;4.502;2022-10-16T07:00:19;15.75;;;2.78;;
37091;SDS011;23005;51.998;4.502;2022-10-16T07:02:09;12.45;;;2.45;;
37091;SDS011;23005;51.998;4.502;2022-10-16T07:04:00;7.13;;;1.75;;
37091;SDS011;23005;51.998;4.502;2022-10-16T07:05:51;12.27;;;2.20;;
37091;SDS011;23005;51.998;4.502;2022-10-16T07:07:42;10.40;;;2.38;;
37091;SDS011;23005;51.998;4.502;2022-10-16T07:09:32;13.75;;;2.50;;
37091;SDS011;23005;51.998;4.502;2022-10-16T07:11:23;13.13;;;2.65;;
37091;SDS011;23005;51.998;4.502;2022-10-16T07:13:14;10.43;;;2.53;;
37091;SDS011;23005;51.998;4.502;2022-10-16T07:15:06;17.60;;;2.42;;
37091;SDS011;23005;51.998;4.502;2022-10-16T07:16:57;13.18;;;2.65;;
37091;SDS011;23005;51.998;4.502;2022-10-16T07:18:48;12.32;;;2.30;;
37091;SDS011;23005;51.998;4.502;2022-10-16T07:20:39;11.48;;;2.53;;
37091;SDS011;23005;51.998;4.502;2022-10-16T07:22:30;13.40;;;2.90;;
37091;SDS011;23005;51.998;4.502;2022-10-16T07:24:21;14.65;;;2.78;;
37091;SDS011;23005;51.998;4.502;2022-10-16T07:26:11;7.05;;;2.05;;
37091;SDS011;23005;51.998;4.502;2022-10-16T07:28:02;12.20;;;2.55;;
37091;SDS011;23005;51.998;4.502;2022-10-16T07:29:52;12.52;;;3.15;;
37091;SDS011;23005;51.998;4.502;2022-10-16T07:31:44;14.20;;;2.70;;
37091;SDS011;23005;51.998;4.502;2022-10-16T07:33:35;13.35;;;2.60;;
37091;SDS011;23005;51.998;4.502;2022-10-16T07:35:25;18.30;;;3.08;;
37091;SDS011;23005;51.998;4.502;2022-10-16T07:37:15;15.18;;;2.72;;
37091;SDS011;23005;51.998;4.502;2022-10-16T07:39:06;11.38;;;2.47;;
37091;SDS011;23005;51.998;4.502;2022-10-16T07:40:57;12.73;;;3.03;;
37091;SDS011;23005;51.998;4.502;2022-10-16T07:42:48;12.43;;;2.77;;
37091;SDS011;23005;51.998;4.502;2022-10-16T07:44:39;14.85;;;2.95;;
37091;SDS011;23005;51.998;4.502;2022-10-16T07:46:29;15.25;;;2.88;;
37091;SDS011;23005;51.998;4.502;2022-10-16T07:48:22;23.52;;;3.22;;
37091;SDS011;23005;51.998;4.502;2022-10-16T07:50:12;13.70;;;2.72;;
37091;SDS011;23005;51.998;4.502;2022-10-16T07:52:03;14.63;;;3.03;;
37091;SDS011;23005;51.998;4.502;2022-10-16T07:53:54;10.48;;;2.25;;
37091;SDS011;23005;51.998;4.502;2022-10-16T07:55:44;11.55;;;2.72;;
37091;SDS011;23005;51.998;4.502;2022-10-16T07:57:35;14.27;;;2.50;;
37091;SDS011;23005;51.998;4.502;2022-10-16T07:59:25;17.75;;;3.03;;
37091;SDS011;23005;51.998;4.502;2022-10-16T08:01:16;12.77;;;2.53;;
37091;SDS011;23005;51.998;4.502;2022-10-16T08:03:08;12.80;;;2.60;;
37091;SDS011;23005;51.998;4.502;2022-10-16T08:04:59;17.45;;;2.92;;
37091;SDS011;23005;51.998;4.502;2022-10-16T08:06:50;16.05;;;2.88;;
37091;SDS011;23005;51.998;4.502;2022-10-16T08:08:40;16.73;;;2.50;;
37091;SDS011;23005;51.998;4.502;2022-10-16T08:10:30;16.63;;;2.70;;
37091;SDS011;23005;51.998;4.502;2022-10-16T08:12:21;15.95;;;2.78;;
37091;SDS011;23005;51.998;4.502;2022-10-16T08:14:11;12.00;;;2.35;;
37091;SDS011;23005;51.998;4.502;2022-10-16T08:16:02;16.75;;;3.00;;
37091;SDS011;23005;51.998;4.502;2022-10-16T08:17:56;14.52;;;2.30;;
37091;SDS011;23005;51.998;4.502;2022-10-16T08:19:47;13.60;;;2.60;;
37091;SDS011;23005;51.998;4.502;2022-10-16T08:21:40;20.38;;;2.90;;
37091;SDS011;23005;51.998;4.502;2022-10-16T08:23:30;15.68;;;2.90;;
37091;SDS011;23005;51.998;4.502;2022-10-16T08:25:22;16.70;;;2.70;;
37091;SDS011;23005;51.998;4.502;2022-10-16T08:27:13;16.07;;;2.50;;
37091;SDS011;23005;51.998;4.502;2022-10-16T08:29:03;21.65;;;3.05;;
37091;SDS011;23005;51.998;4.502;2022-10-16T08:30:54;27.95;;;3.03;;
37091;SDS011;23005;51.998;4.502;2022-10-16T08:32:45;17.02;;;2.67;;
37091;SDS011;23005;51.998;4.502;2022-10-16T08:34:35;22.50;;;3.28;;
37091;SDS011;23005;51.998;4.502;2022-10-16T08:36:26;12.40;;;2.40;;
37091;SDS011;23005;51.998;4.502;2022-10-16T08:38:18;17.15;;;3.35;;
37091;SDS011;23005;51.998;4.502;2022-10-16T08:40:12;20.40;;;3.50;;
37091;SDS011;23005;51.998;4.502;2022-10-16T08:42:11;19.00;;;3.30;;
37091;SDS011;23005;51.998;4.502;2022-10-16T08:44:24;15.63;;;2.90;;
37091;SDS011;23005;51.998;4.502;2022-10-16T08:46:30;17.15;;;3.35;;
37091;SDS011;23005;51.998;4.502;2022-10-16T08:48:29;14.73;;;2.85;;
37091;SDS011;23005;51.998;4.502;2022-10-16T08:50:24;11.70;;;2.72;;
37091;SDS011;23005;51.998;4.502;2022-10-16T08:52:15;23.80;;;3.03;;
37091;SDS011;23005;51.998;4.502;2022-10-16T08:54:10;18.75;;;2.88;;
37091;SDS011;23005;51.998;4.502;2022-10-16T08:56:06;16.10;;;3.08;;
37091;SDS011;23005;51.998;4.502;2022-10-16T08:57:56;19.42;;;3.10;;
37091;SDS011;23005;51.998;4.502;2022-10-16T08:59:47;20.48;;;3.83;;
37091;SDS011;23005;51.998;4.502;2022-10-16T09:01:38;16.30;;;3.08;;
37091;SDS011;23005;51.998;4.502;2022-10-16T09:03:35;16.50;;;2.95;;
37091;SDS011;23005;51.998;4.502;2022-10-16T09:05:45;22.95;;;3.05;;
37091;SDS011;23005;51.998;4.502;2022-10-16T09:07:43;16.02;;;3.25;;
37091;SDS011;23005;51.998;4.502;2022-10-16T09:09:43;22.15;;;2.95;;
37091;SDS011;23005;51.998;4.502;2022-10-16T09:11:46;19.63;;;3.15;;
37091;SDS011;23005;51.998;4.502;2022-10-16T09:13:41;20.08;;;3.55;;
37091;SDS011;23005;51.998;4.502;2022-10-16T09:15:39;22.42;;;4.05;;
37091;SDS011;23005;51.998;4.502;2022-10-16T09:17:35;15.57;;;2.90;;
37091;SDS011;23005;51.998;4.502;2022-10-16T09:19:28;19.45;;;3.00;;
37091;SDS011;23005;51.998;4.502;2022-10-16T09:21:21;16.23;;;3.10;;
37091;SDS011;23005;51.998;4.502;2022-10-16T09:23:14;20.13;;;3.22;;
37091;SDS011;23005;51.998;4.502;2022-10-16T09:25:12;18.08;;;3.40;;
37091;SDS011;23005;51.998;4.502;2022-10-16T09:27:03;24.77;;;3.67;;
37091;SDS011;23005;51.998;4.502;2022-10-16T09:28:54;16.85;;;3.15;;
37091;SDS011;23005;51.998;4.502;2022-10-16T09:30:44;22.10;;;3.55;;
37091;SDS011;23005;51.998;4.502;2022-10-16T09:32:36;21.45;;;3.10;;
37091;SDS011;23005;51.998;4.502;2022-10-16T09:34:29;18.70;;;3.33;;
37091;SDS011;23005;51.998;4.502;2022-10-16T09:36:22;17.38;;;2.97;;
37091;SDS011;23005;51.998;4.502;2022-10-16T09:38:25;18.80;;;2.97;;
37091;SDS011;23005;51.998;4.502;2022-10-16T09:40:25;25.70;;;3.03;;
37091;SDS011;23005;51.998;4.502;2022-10-16T09:42:16;22.77;;;3.72;;
37091;SDS011;23005;51.998;4.502;2022-10-16T09:44:14;20.63;;;3.00;;
37091;SDS011;23005;51.998;4.502;2022-10-16T09:46:09;20.98;;;3.22;;
37091;SDS011;23005;51.998;4.502;2022-10-16T09:48:12;16.13;;;3.45;;
37091;SDS011;23005;51.998;4.502;2022-10-16T09:50:19;20.08;;;4.28;;
37091;SDS011;23005;51.998;4.502;2022-10-16T09:52:13;23.15;;;3.17;;
37091;SDS011;23005;51.998;4.502;2022-10-16T09:54:13;20.00;;;3.88;;
37091;SDS011;23005;51.998;4.502;2022-10-16T09:56:05;18.95;;;3.22;;
37091;SDS011;23005;51.998;4.502;2022-10-16T09:58:02;20.88;;;3.30;;
37091;SDS011;23005;51.998;4.502;2022-10-16T09:59:54;19.48;;;3.22;;
37091;SDS011;23005;51.998;4.502;2022-10-16T10:01:45;21.38;;;3.53;;
37091;SDS011;23005;51.998;4.502;2022-10-16T10:05:28;20.63;;;2.97;;
37091;SDS011;23005;51.998;4.502;2022-10-16T10:07:21;17.30;;;2.70;;
37091;SDS011;23005;51.998;4.502;2022-10-16T10:09:18;18.83;;;3.22;;
37091;SDS011;23005;51.998;4.502;2022-10-16T10:11:11;20.80;;;3.08;;
37091;SDS011;23005;51.998;4.502;2022-10-16T10:13:14;21.80;;;3.17;;
37091;SDS011;23005;51.998;4.502;2022-10-16T10:15:10;16.67;;;2.95;;
37091;SDS011;23005;51.998;4.502;2022-10-16T10:17:10;18.75;;;3.17;;
37091;SDS011;23005;51.998;4.502;2022-10-16T10:19:02;24.35;;;3.97;;
37091;SDS011;23005;51.998;4.502;2022-10-16T10:20:57;23.52;;;3.20;;
37091;SDS011;23005;51.998;4.502;2022-10-16T10:22:58;21.85;;;3.50;;
37091;SDS011;23005;51.998;4.502;2022-10-16T10:27:23;16.92;;;3.10;;
37091;SDS011;23005;51.998;4.502;2022-10-16T10:29:25;22.17;;;3.15;;
37091;SDS011;23005;51.998;4.502;2022-10-16T10:31:25;23.30;;;2.92;;
37091;SDS011;23005;51.998;4.502;2022-10-16T10:33:20;21.38;;;3.25;;
37091;SDS011;23005;51.998;4.502;2022-10-16T10:35:15;20.13;;;2.90;;
37091;SDS011;23005;51.998;4.502;2022-10-16T10:37:14;19.17;;;3.15;;
37091;SDS011;23005;51.998;4.502;2022-10-16T10:39:15;20.40;;;3.80;;
37091;SDS011;23005;51.998;4.502;2022-10-16T10:41:12;19.92;;;3.40;;
37091;SDS011;23005;51.998;4.502;2022-10-16T10:43:37;23.10;;;3.50;;
37091;SDS011;23005;51.998;4.502;2022-10-16T10:45:36;19.17;;;3.65;;
37091;SDS011;23005;51.998;4.502;2022-10-16T10:47:35;23.90;;;3.42;;
37091;SDS011;23005;51.998;4.502;2022-10-16T10:49:34;18.10;;;3.00;;
37091;SDS011;23005;51.998;4.502;2022-10-16T10:51:39;15.60;;;2.95;;
37091;SDS011;23005;51.998;4.502;2022-10-16T10:53:36;23.60;;;2.80;;
37091;SDS011;23005;51.998;4.502;2022-10-16T10:55:33;22.48;;;3.33;;
37091;SDS011;23005;51.998;4.502;2022-10-16T10:57:29;24.17;;;3.10;;
37091;SDS011;23005;51.998;4.502;2022-10-16T11:01:39;20.50;;;3.00;;
37091;SDS011;23005;51.998;4.502;2022-10-16T11:03:35;22.85;;;2.80;;
37091;SDS011;23005;51.998;4.502;2022-10-16T11:05:38;27.15;;;3.33;;
37091;SDS011;23005;51.998;4.502;2022-10-16T11:07:31;19.20;;;3.30;;
37091;SDS011;23005;51.998;4.502;2022-10-16T11:09:24;24.45;;;3.42;;
37091;SDS011;23005;51.998;4.502;2022-10-16T11:11:17;16.85;;;2.80;;
37091;SDS011;23005;51.998;4.502;2022-10-16T11:13:15;18.45;;;3.42;;
37091;SDS011;23005;51.998;4.502;2022-10-16T11:15:13;28.70;;;3.40;;
37091;SDS011;23005;51.998;4.502;2022-10-16T11:17:07;15.30;;;2.60;;
37091;SDS011;23005;51.998;4.502;2022-10-16T11:19:02;17.85;;;2.70;;
37091;SDS011;23005;51.998;4.502;2022-10-16T11:21:00;12.15;;;2.33;;
37091;SDS011;23005;51.998;4.502;2022-10-16T11:22:55;18.25;;;3.85;;
37091;SDS011;23005;51.998;4.502;2022-10-16T11:24:49;22.23;;;3.30;;
37091;SDS011;23005;51.998;4.502;2022-10-16T11:26:43;20.02;;;2.95;;